sensor_id;sensor_type;location;lat;lon;timestamp;pressure;altitude;pressure_sealevel;temperature
76713;BMP280;65640;43.154;25.658;2023-06-14T00:02:11;100349.03;;;19.40
76713;BMP280;65640;43.154;25.658;2023-06-14T00:04:36;100345.72;;;19.43
76713;BMP280;65640;43.154;25.658;2023-06-14T00:07:04;100347.72;;;19.34
76713;BMP280;65640;43.154;25.658;2023-06-14T00:09:29;100344.97;;;19.30
76713;BMP280;65640;43.154;25.658;2023-06-14T00:11:55;100348.41;;;19.31
76713;BMP280;65640;43.154;25.658;2023-06-14T00:14:20;100338.66;;;19.35
76713;BMP280;65640;43.154;25.658;2023-06-14T00:16:46;100350.19;;;19.27
76713;BMP280;65640;43.154;25.658;2023-06-14T00:19:11;100342.63;;;19.29
76713;BMP280;65640;43.154;25.658;2023-06-14T00:21:37;100344.97;;;19.30
76713;BMP280;65640;43.154;25.658;2023-06-14T00:24:03;100347.31;;;19.32
76713;BMP280;65640;43.154;25.658;2023-06-14T00:26:29;100346.53;;;19.31
76713;BMP280;65640;43.154;25.658;2023-06-14T00:28:55;100347.72;;;19.34
76713;BMP280;65640;43.154;25.658;2023-06-14T00:31:24;100340.19;;;19.24
76713;BMP280;65640;43.154;25.658;2023-06-14T00:33:50;100342.53;;;19.25
76713;BMP280;65640;43.154;25.658;2023-06-14T00:36:15;100342.75;;;19.20
76713;BMP280;65640;43.154;25.658;2023-06-14T00:38:40;100335.13;;;19.19
76713;BMP280;65640;43.154;25.658;2023-06-14T00:41:06;100330.72;;;19.11
76713;BMP280;65640;43.154;25.658;2023-06-14T00:43:31;100330.91;;;18.93
76713;BMP280;65640;43.154;25.658;2023-06-14T00:45:57;100329.38;;;18.92
76713;BMP280;65640;43.154;25.658;2023-06-14T00:48:23;100320.41;;;18.85
76713;BMP280;65640;43.154;25.658;2023-06-14T00:50:50;100331.34;;;18.83
76713;BMP280;65640;43.154;25.658;2023-06-14T00:53:16;100330.25;;;18.84
76713;BMP280;65640;43.154;25.658;2023-06-14T00:55:51;100331.34;;;18.83
76713;BMP280;65640;43.154;25.658;2023-06-14T00:58:16;100333.56;;;18.81
76713;BMP280;65640;43.154;25.658;2023-06-14T01:00:42;100326.38;;;18.82
76713;BMP280;65640;43.154;25.658;2023-06-14T01:03:07;100328.25;;;18.81
76713;BMP280;65640;43.154;25.658;2023-06-14T01:05:37;100324.94;;;18.84
76713;BMP280;65640;43.154;25.658;2023-06-14T01:08:24;100322.50;;;18.79
76713;BMP280;65640;43.154;25.658;2023-06-14T01:10:56;100320.53;;;18.64
76713;BMP280;65640;43.154;25.658;2023-06-14T01:13:29;100322.72;;;18.62
76713;BMP280;65640;43.154;25.658;2023-06-14T01:15:57;100326.03;;;18.59
76713;BMP280;65640;43.154;25.658;2023-06-14T01:18:22;100330.19;;;18.60
76713;BMP280;65640;43.154;25.658;2023-06-14T01:20:49;100321.81;;;18.58
76713;BMP280;65640;43.154;25.658;2023-06-14T01:23:19;100321.50;;;18.60
76713;BMP280;65640;43.154;25.658;2023-06-14T01:25:45;100330.41;;;18.55
76713;BMP280;65640;43.154;25.658;2023-06-14T01:28:12;100325.75;;;18.52
76713;BMP280;65640;43.154;25.658;2023-06-14T01:30:42;100323.09;;;18.52
76713;BMP280;65640;43.154;25.658;2023-06-14T01:33:13;100317.91;;;18.43
76713;BMP280;65640;43.154;25.658;2023-06-14T01:35:42;100325.75;;;18.40
76713;BMP280;65640;43.154;25.658;2023-06-14T01:38:08;100326.38;;;18.37
76713;BMP280;65640;43.154;25.658;2023-06-14T01:40:34;100327.16;;;18.37
76713;BMP280;65640;43.154;25.658;2023-06-14T01:43:01;100323.50;;;18.30
76713;BMP280;65640;43.154;25.658;2023-06-14T01:45:27;100319.09;;;18.34
76713;BMP280;65640;43.154;25.658;2023-06-14T01:47:54;100325.28;;;18.38
76713;BMP280;65640;43.154;25.658;2023-06-14T01:50:20;100322.97;;;18.36
76713;BMP280;65640;43.154;25.658;2023-06-14T01:52:45;100317.72;;;18.28
76713;BMP280;65640;43.154;25.658;2023-06-14T01:55:11;100321.38;;;18.23
76713;BMP280;65640;43.154;25.658;2023-06-14T01:57:36;100325.59;;;18.24
76713;BMP280;65640;43.154;25.658;2023-06-14T02:00:03;100330.78;;;18.21
76713;BMP280;65640;43.154;25.658;2023-06-14T02:02:29;100324.69;;;18.20
76713;BMP280;65640;43.154;25.658;2023-06-14T02:04:54;100337.03;;;18.16
76713;BMP280;65640;43.154;25.658;2023-06-14T02:07:22;100333.53;;;18.24
76713;BMP280;65640;43.154;25.658;2023-06-14T02:09:48;100333.22;;;18.26
76713;BMP280;65640;43.154;25.658;2023-06-14T02:12:13;100330.06;;;18.12
76713;BMP280;65640;43.154;25.658;2023-06-14T02:14:39;100327.59;;;18.07
76713;BMP280;65640;43.154;25.658;2023-06-14T02:17:04;100320.34;;;18.16
76713;BMP280;65640;43.154;25.658;2023-06-14T02:19:31;100336.91;;;18.13
76713;BMP280;65640;43.154;25.658;2023-06-14T02:21:56;100342.84;;;18.10
76713;BMP280;65640;43.154;25.658;2023-06-14T02:24:22;100336.44;;;18.11
76713;BMP280;65640;43.154;25.658;2023-06-14T02:26:48;100333.63;;;18.16
76713;BMP280;65640;43.154;25.658;2023-06-14T02:29:14;100328.03;;;18.09
76713;BMP280;65640;43.154;25.658;2023-06-14T02:31:40;100340.66;;;18.12
76713;BMP280;65640;43.154;25.658;2023-06-14T02:34:06;100347.06;;;18.11
76713;BMP280;65640;43.154;25.658;2023-06-14T02:36:34;100344.41;;;18.11
76713;BMP280;65640;43.154;25.658;2023-06-14T02:39:00;100348.91;;;18.10
76713;BMP280;65640;43.154;25.658;2023-06-14T02:41:26;100340.59;;;18.00
76713;BMP280;65640;43.154;25.658;2023-06-14T02:43:52;100345.91;;;18.00
76713;BMP280;65640;43.154;25.658;2023-06-14T02:46:17;100351.84;;;17.96
76713;BMP280;65640;43.154;25.658;2023-06-14T02:48:43;100356.88;;;17.89
76713;BMP280;65640;43.154;25.658;2023-06-14T02:51:08;100359.38;;;17.86
76713;BMP280;65640;43.154;25.658;2023-06-14T02:53:35;100350.44;;;17.78
76713;BMP280;65640;43.154;25.658;2023-06-14T02:56:01;100361.50;;;17.72
76713;BMP280;65640;43.154;25.658;2023-06-14T02:58:29;100361.09;;;17.61
76713;BMP280;65640;43.154;25.658;2023-06-14T03:00:54;100366.78;;;17.51
76713;BMP280;65640;43.154;25.658;2023-06-14T03:03:20;100367.91;;;17.41
76713;BMP280;65640;43.154;25.658;2023-06-14T03:05:48;100363.63;;;17.58
76713;BMP280;65640;43.154;25.658;2023-06-14T03:08:15;100367.81;;;17.59
76713;BMP280;65640;43.154;25.658;2023-06-14T03:10:48;100367.78;;;17.67
76713;BMP280;65640;43.154;25.658;2023-06-14T03:13:17;100367.59;;;17.72
76713;BMP280;65640;43.154;25.658;2023-06-14T03:15:42;100372.97;;;17.84
76713;BMP280;65640;43.154;25.658;2023-06-14T03:18:08;100381.03;;;18.09
76713;BMP280;65640;43.154;25.658;2023-06-14T03:20:35;100386.78;;;18.31
76713;BMP280;65640;43.154;25.658;2023-06-14T03:23:01;100386.44;;;18.33
76713;BMP280;65640;43.154;25.658;2023-06-14T03:25:26;100382.75;;;18.46
76713;BMP280;65640;43.154;25.658;2023-06-14T03:27:55;100376.84;;;18.61
76713;BMP280;65640;43.154;25.658;2023-06-14T03:30:21;100388.03;;;18.79
76713;BMP280;65640;43.154;25.658;2023-06-14T03:32:46;100391.53;;;18.91
76713;BMP280;65640;43.154;25.658;2023-06-14T03:35:11;100393.59;;;18.98
76713;BMP280;65640;43.154;25.658;2023-06-14T03:37:45;100400.94;;;19.13
76713;BMP280;65640;43.154;25.658;2023-06-14T03:40:12;100395.75;;;19.29
76713;BMP280;65640;43.154;25.658;2023-06-14T03:42:38;100401.28;;;19.36
76713;BMP280;65640;43.154;25.658;2023-06-14T03:45:05;100395.31;;;19.27
76713;BMP280;65640;43.154;25.658;2023-06-14T03:47:31;100404.34;;;19.50
76713;BMP280;65640;43.154;25.658;2023-06-14T03:49:57;100395.75;;;19.41
76713;BMP280;65640;43.154;25.658;2023-06-14T03:52:22;100401.50;;;19.19
76713;BMP280;65640;43.154;25.658;2023-06-14T03:54:48;100406.16;;;19.10
76713;BMP280;65640;43.154;25.658;2023-06-14T03:57:15;100409.44;;;19.07
76713;BMP280;65640;43.154;25.658;2023-06-14T03:59:40;100409.78;;;19.29
76713;BMP280;65640;43.154;25.658;2023-06-14T04:02:06;100410.59;;;19.54
76713;BMP280;65640;43.154;25.658;2023-06-14T04:04:32;100404.34;;;19.62
76713;BMP280;65640;43.154;25.658;2023-06-14T04:06:58;100406.59;;;19.60
76713;BMP280;65640;43.154;25.658;2023-06-14T04:09:26;100411.91;;;19.36
76713;BMP280;65640;43.154;25.658;2023-06-14T04:11:54;100410.34;;;19.35
76713;BMP280;65640;43.154;25.658;2023-06-14T04:14:20;100409.56;;;19.47
76713;BMP280;65640;43.154;25.658;2023-06-14T04:16:47;100410.78;;;19.49
76713;BMP280;65640;43.154;25.658;2023-06-14T04:19:12;100413.00;;;19.59
76713;BMP280;65640;43.154;25.658;2023-06-14T04:21:38;100409.97;;;19.73
76713;BMP280;65640;43.154;25.658;2023-06-14T04:24:04;100413.72;;;19.72
76713;BMP280;65640;43.154;25.658;2023-06-14T04:26:29;100408.75;;;19.82
76713;BMP280;65640;43.154;25.658;2023-06-14T04:28:59;100416.06;;;19.73
76713;BMP280;65640;43.154;25.658;2023-06-14T04:31:31;100417.84;;;19.81
76713;BMP280;65640;43.154;25.658;2023-06-14T04:33:59;100418.63;;;19.82
76713;BMP280;65640;43.154;25.658;2023-06-14T04:36:24;100424.34;;;19.72
76713;BMP280;65640;43.154;25.658;2023-06-14T04:38:53;100424.25;;;19.80
76713;BMP280;65640;43.154;25.658;2023-06-14T04:41:21;100424.75;;;19.58
76713;BMP280;65640;43.154;25.658;2023-06-14T04:43:48;100429.03;;;19.63
76713;BMP280;65640;43.154;25.658;2023-06-14T04:46:15;100424.16;;;19.65
76713;BMP280;65640;43.154;25.658;2023-06-14T04:48:41;100437.53;;;19.80
76713;BMP280;65640;43.154;25.658;2023-06-14T04:51:10;100434.22;;;19.83
76713;BMP280;65640;43.154;25.658;2023-06-14T04:53:36;100433.00;;;19.69
76713;BMP280;65640;43.154;25.658;2023-06-14T04:56:02;100437.53;;;19.68
76713;BMP280;65640;43.154;25.658;2023-06-14T04:58:28;100447.06;;;19.69
76713;BMP280;65640;43.154;25.658;2023-06-14T05:00:54;100448.28;;;19.72
76713;BMP280;65640;43.154;25.658;2023-06-14T05:03:22;100449.50;;;19.74
76713;BMP280;65640;43.154;25.658;2023-06-14T05:05:49;100453.94;;;19.82
76713;BMP280;65640;43.154;25.658;2023-06-14T05:08:15;100450.41;;;19.78
76713;BMP280;65640;43.154;25.658;2023-06-14T05:10:41;100457.78;;;19.85
76713;BMP280;65640;43.154;25.658;2023-06-14T05:13:06;100467.84;;;20.04
76713;BMP280;65640;43.154;25.658;2023-06-14T05:15:32;100462.56;;;20.31
76713;BMP280;65640;43.154;25.658;2023-06-14T05:17:57;100457.47;;;20.54
76713;BMP280;65640;43.154;25.658;2023-06-14T05:20:24;100467.38;;;20.69
76713;BMP280;65640;43.154;25.658;2023-06-14T05:22:52;100470.03;;;20.69
76713;BMP280;65640;43.154;25.658;2023-06-14T05:25:19;100461.31;;;21.00
76713;BMP280;65640;43.154;25.658;2023-06-14T05:27:45;100456.50;;;21.21
76713;BMP280;65640;43.154;25.658;2023-06-14T05:30:11;100457.47;;;21.29
76713;BMP280;65640;43.154;25.658;2023-06-14T05:32:37;100461.31;;;21.31
76713;BMP280;65640;43.154;25.658;2023-06-14T05:35:02;100472.47;;;21.53
76713;BMP280;65640;43.154;25.658;2023-06-14T05:37:27;100470.53;;;21.69
76713;BMP280;65640;43.154;25.658;2023-06-14T05:39:53;100478.47;;;21.65
76713;BMP280;65640;43.154;25.658;2023-06-14T05:42:18;100482.88;;;21.58
76713;BMP280;65640;43.154;25.658;2023-06-14T05:44:44;100475.22;;;21.56
76713;BMP280;65640;43.154;25.658;2023-06-14T05:47:09;100485.19;;;21.43
76713;BMP280;65640;43.154;25.658;2023-06-14T05:49:34;100488.75;;;21.67
76713;BMP280;65640;43.154;25.658;2023-06-14T05:52:00;100486.78;;;21.79
76713;BMP280;65640;43.154;25.658;2023-06-14T05:54:26;100492.09;;;21.79
76713;BMP280;65640;43.154;25.658;2023-06-14T05:56:51;100488.44;;;21.87
76713;BMP280;65640;43.154;25.658;2023-06-14T05:59:16;100491.84;;;21.84
76713;BMP280;65640;43.154;25.658;2023-06-14T06:01:42;100492.19;;;21.83
76713;BMP280;65640;43.154;25.658;2023-06-14T06:04:07;100495.09;;;21.93
76713;BMP280;65640;43.154;25.658;2023-06-14T06:06:32;100494.19;;;22.05
76713;BMP280;65640;43.154;25.658;2023-06-14T06:08:58;100494.19;;;22.05
76713;BMP280;65640;43.154;25.658;2023-06-14T06:11:24;100494.53;;;22.23
76713;BMP280;65640;43.154;25.658;2023-06-14T06:13:49;100494.31;;;22.51
76713;BMP280;65640;43.154;25.658;2023-06-14T06:16:15;100500.69;;;22.65
76713;BMP280;65640;43.154;25.658;2023-06-14T06:18:40;100487.50;;;22.53
76713;BMP280;65640;43.154;25.658;2023-06-14T06:21:06;100499.97;;;22.68
76713;BMP280;65640;43.154;25.658;2023-06-14T06:23:31;100488.00;;;22.81
76713;BMP280;65640;43.154;25.658;2023-06-14T06:25:57;100492.03;;;22.94
76713;BMP280;65640;43.154;25.658;2023-06-14T06:28:22;100483.66;;;23.45
76713;BMP280;65640;43.154;25.658;2023-06-14T06:30:48;100492.63;;;23.89
76713;BMP280;65640;43.154;25.658;2023-06-14T06:33:13;100491.00;;;23.51
76713;BMP280;65640;43.154;25.658;2023-06-14T06:35:39;100498.25;;;23.25
76713;BMP280;65640;43.154;25.658;2023-06-14T06:38:05;100498.13;;;23.40
76713;BMP280;65640;43.154;25.658;2023-06-14T06:40:30;100493.63;;;23.48
76713;BMP280;65640;43.154;25.658;2023-06-14T06:42:56;100501.19;;;23.98
76713;BMP280;65640;43.154;25.658;2023-06-14T06:45:21;100498.47;;;24.69
76713;BMP280;65640;43.154;25.658;2023-06-14T06:47:48;100499.69;;;24.78
76713;BMP280;65640;43.154;25.658;2023-06-14T06:50:14;100500.03;;;25.17
76713;BMP280;65640;43.154;25.658;2023-06-14T06:52:39;100500.03;;;25.17
76713;BMP280;65640;43.154;25.658;2023-06-14T06:55:05;100492.38;;;25.19
76713;BMP280;65640;43.154;25.658;2023-06-14T06:57:31;100490.88;;;25.29
76713;BMP280;65640;43.154;25.658;2023-06-14T06:59:57;100485.34;;;25.00
76713;BMP280;65640;43.154;25.658;2023-06-14T07:02:22;100489.28;;;24.66
76713;BMP280;65640;43.154;25.658;2023-06-14T07:04:48;100484.25;;;24.61
76713;BMP280;65640;43.154;25.658;2023-06-14T07:07:13;100480.44;;;24.62
76713;BMP280;65640;43.154;25.658;2023-06-14T07:09:39;100479.94;;;24.13
76713;BMP280;65640;43.154;25.658;2023-06-14T07:12:06;100475.91;;;24.66
76713;BMP280;65640;43.154;25.658;2023-06-14T07:14:33;100473.94;;;25.10
76713;BMP280;65640;43.154;25.658;2023-06-14T07:16:58;100464.47;;;25.27
76713;BMP280;65640;43.154;25.658;2023-06-14T07:19:23;100468.75;;;25.46
76713;BMP280;65640;43.154;25.658;2023-06-14T07:21:49;100465.38;;;25.56
76713;BMP280;65640;43.154;25.658;2023-06-14T07:24:14;100469.47;;;25.36
76713;BMP280;65640;43.154;25.658;2023-06-14T07:26:40;100471.44;;;25.46
76713;BMP280;65640;43.154;25.658;2023-06-14T07:29:06;100476.09;;;24.94
76713;BMP280;65640;43.154;25.658;2023-06-14T07:31:31;100465.44;;;25.01
76713;BMP280;65640;43.154;25.658;2023-06-14T07:33:56;100476.75;;;24.81
76713;BMP280;65640;43.154;25.658;2023-06-14T07:36:22;100472.91;;;24.78
76713;BMP280;65640;43.154;25.658;2023-06-14T07:38:48;100469.22;;;24.93
76713;BMP280;65640;43.154;25.658;2023-06-14T07:41:13;100468.66;;;25.28
76713;BMP280;65640;43.154;25.658;2023-06-14T07:43:38;100467.84;;;25.13
76713;BMP280;65640;43.154;25.658;2023-06-14T07:46:04;100464.69;;;25.04
76713;BMP280;65640;43.154;25.658;2023-06-14T07:48:30;100465.00;;;25.57
76713;BMP280;65640;43.154;25.658;2023-06-14T07:50:55;100466.91;;;25.57
76713;BMP280;65640;43.154;25.658;2023-06-14T07:53:21;100474.91;;;25.50
76713;BMP280;65640;43.154;25.658;2023-06-14T07:55:46;100477.31;;;25.76
76713;BMP280;65640;43.154;25.658;2023-06-14T07:58:12;100475.00;;;25.64
76713;BMP280;65640;43.154;25.658;2023-06-14T08:00:38;100467.28;;;25.55
76713;BMP280;65640;43.154;25.658;2023-06-14T08:03:03;100469.56;;;25.53
76713;BMP280;65640;43.154;25.658;2023-06-14T08:05:29;100469.00;;;26.13
76713;BMP280;65640;43.154;25.658;2023-06-14T08:07:55;100467.13;;;26.42
76713;BMP280;65640;43.154;25.658;2023-06-14T08:10:21;100474.44;;;26.55
76713;BMP280;65640;43.154;25.658;2023-06-14T08:12:47;100479.44;;;26.50
76713;BMP280;65640;43.154;25.658;2023-06-14T08:15:14;100478.28;;;26.44
76713;BMP280;65640;43.154;25.658;2023-06-14T08:17:39;100482.84;;;26.36
76713;BMP280;65640;43.154;25.658;2023-06-14T08:20:05;100477.47;;;26.40
76713;BMP280;65640;43.154;25.658;2023-06-14T08:22:31;100482.13;;;26.50
76713;BMP280;65640;43.154;25.658;2023-06-14T08:25:02;100476.72;;;26.43
76713;BMP280;65640;43.154;25.658;2023-06-14T08:27:28;100486.25;;;26.15
76713;BMP280;65640;43.154;25.658;2023-06-14T08:29:54;100477.13;;;26.30
76713;BMP280;65640;43.154;25.658;2023-06-14T08:32:19;100475.94;;;26.67
76713;BMP280;65640;43.154;25.658;2023-06-14T08:34:45;100483.63;;;26.97
76713;BMP280;65640;43.154;25.658;2023-06-14T08:37:10;100470.81;;;27.39
76713;BMP280;65640;43.154;25.658;2023-06-14T08:39:35;100467.59;;;27.76
76713;BMP280;65640;43.154;25.658;2023-06-14T08:42:01;100467.38;;;28.11
76713;BMP280;65640;43.154;25.658;2023-06-14T08:44:27;100468.34;;;28.32
76713;BMP280;65640;43.154;25.658;2023-06-14T08:46:52;100465.97;;;28.41
76713;BMP280;65640;43.154;25.658;2023-06-14T08:49:20;100470.44;;;28.13
76713;BMP280;65640;43.154;25.658;2023-06-14T08:51:46;100468.41;;;27.63
76713;BMP280;65640;43.154;25.658;2023-06-14T08:54:17;100468.28;;;27.91
76713;BMP280;65640;43.154;25.658;2023-06-14T08:56:46;100460.63;;;28.37
76713;BMP280;65640;43.154;25.658;2023-06-14T08:59:13;100462.13;;;28.42
76713;BMP280;65640;43.154;25.658;2023-06-14T09:01:39;100456.59;;;28.59
76713;BMP280;65640;43.154;25.658;2023-06-14T09:04:05;100460.06;;;28.12
76713;BMP280;65640;43.154;25.658;2023-06-14T09:06:30;100450.78;;;28.61
76713;BMP280;65640;43.154;25.658;2023-06-14T09:08:57;100454.97;;;28.65
76713;BMP280;65640;43.154;25.658;2023-06-14T09:11:22;100453.38;;;29.09
76713;BMP280;65640;43.154;25.658;2023-06-14T09:13:49;100455.97;;;29.16
76713;BMP280;65640;43.154;25.658;2023-06-14T09:16:16;100464.69;;;29.27
76713;BMP280;65640;43.154;25.658;2023-06-14T09:18:44;100460.88;;;28.91
76713;BMP280;65640;43.154;25.658;2023-06-14T09:21:11;100467.44;;;28.90
76713;BMP280;65640;43.154;25.658;2023-06-14T09:23:41;100464.38;;;28.88
76713;BMP280;65640;43.154;25.658;2023-06-14T09:28:36;100467.28;;;28.66
76713;BMP280;65640;43.154;25.658;2023-06-14T09:31:07;100466.72;;;28.45
76713;BMP280;65640;43.154;25.658;2023-06-14T09:33:34;100470.50;;;28.51
76713;BMP280;65640;43.154;25.658;2023-06-14T09:35:59;100466.88;;;28.27
76713;BMP280;65640;43.154;25.658;2023-06-14T09:38:26;100472.97;;;28.35
76713;BMP280;65640;43.154;25.658;2023-06-14T09:40:51;100474.94;;;28.71
76713;BMP280;65640;43.154;25.658;2023-06-14T09:43:17;100468.97;;;28.50
76713;BMP280;65640;43.154;25.658;2023-06-14T09:45:43;100458.28;;;28.39
76713;BMP280;65640;43.154;25.658;2023-06-14T09:48:11;100462.38;;;28.10
76713;BMP280;65640;43.154;25.658;2023-06-14T09:50:37;100465.16;;;27.92
76713;BMP280;65640;43.154;25.658;2023-06-14T09:53:07;100462.84;;;27.94
76713;BMP280;65640;43.154;25.658;2023-06-14T09:55:35;100450.06;;;28.57
76713;BMP280;65640;43.154;25.658;2023-06-14T09:58:07;100450.69;;;28.71
76713;BMP280;65640;43.154;25.658;2023-06-14T10:00:34;100442.03;;;29.21
76713;BMP280;65640;43.154;25.658;2023-06-14T10:03:28;100446.25;;;29.25
76713;BMP280;65640;43.154;25.658;2023-06-14T10:05:54;100448.63;;;29.20
76713;BMP280;65640;43.154;25.658;2023-06-14T10:08:24;100436.47;;;29.35
76713;BMP280;65640;43.154;25.658;2023-06-14T10:10:51;100446.16;;;29.59
76713;BMP280;65640;43.154;25.658;2023-06-14T10:13:17;100441.69;;;29.49
76713;BMP280;65640;43.154;25.658;2023-06-14T10:16:05;100438.72;;;29.40
76713;BMP280;65640;43.154;25.658;2023-06-14T10:21:23;100440.34;;;28.66
76713;BMP280;65640;43.154;25.658;2023-06-14T10:23:52;100439.88;;;29.09
76713;BMP280;65640;43.154;25.658;2023-06-14T10:26:19;100430.00;;;29.82
76713;BMP280;65640;43.154;25.658;2023-06-14T10:29:07;100431.25;;;30.01
76713;BMP280;65640;43.154;25.658;2023-06-14T10:32:00;100431.13;;;30.08
76713;BMP280;65640;43.154;25.658;2023-06-14T10:34:29;100432.88;;;30.18
76713;BMP280;65640;43.154;25.658;2023-06-14T10:37:12;100438.44;;;29.61
76713;BMP280;65640;43.154;25.658;2023-06-14T10:39:45;100432.66;;;29.86
76713;BMP280;65640;43.154;25.658;2023-06-14T10:42:13;100429.97;;;30.09
76713;BMP280;65640;43.154;25.658;2023-06-14T10:44:43;100429.28;;;30.25
76713;BMP280;65640;43.154;25.658;2023-06-14T10:47:30;100438.53;;;30.04
76713;BMP280;65640;43.154;25.658;2023-06-14T10:52:28;100424.00;;;29.94
76713;BMP280;65640;43.154;25.658;2023-06-14T10:55:13;100425.34;;;30.10
76713;BMP280;65640;43.154;25.658;2023-06-14T10:57:49;100419.75;;;30.40
76713;BMP280;65640;43.154;25.658;2023-06-14T11:00:18;100418.41;;;30.91
76713;BMP280;65640;43.154;25.658;2023-06-14T11:05:50;100414.88;;;31.62
76713;BMP280;65640;43.154;25.658;2023-06-14T11:08:42;100418.28;;;31.50
76713;BMP280;65640;43.154;25.658;2023-06-14T11:11:13;100418.75;;;31.93
76713;BMP280;65640;43.154;25.658;2023-06-14T11:13:42;100414.50;;;32.08
76713;BMP280;65640;43.154;25.658;2023-06-14T11:16:12;100412.25;;;31.58
76713;BMP280;65640;43.154;25.658;2023-06-14T11:18:38;100414.50;;;30.72
76713;BMP280;65640;43.154;25.658;2023-06-14T11:21:04;100410.81;;;30.43
76713;BMP280;65640;43.154;25.658;2023-06-14T11:23:29;100405.69;;;30.29
76713;BMP280;65640;43.154;25.658;2023-06-14T11:25:55;100422.97;;;29.62
76713;BMP280;65640;43.154;25.658;2023-06-14T11:28:20;100410.66;;;29.61
76713;BMP280;65640;43.154;25.658;2023-06-14T11:30:47;100419.66;;;29.77
76713;BMP280;65640;43.154;25.658;2023-06-14T11:33:19;100410.28;;;29.85
76713;BMP280;65640;43.154;25.658;2023-06-14T11:35:44;100410.19;;;29.39
76713;BMP280;65640;43.154;25.658;2023-06-14T11:38:11;100413.00;;;29.02
76713;BMP280;65640;43.154;25.658;2023-06-14T11:40:38;100409.81;;;29.07
76713;BMP280;65640;43.154;25.658;2023-06-14T11:43:03;100399.97;;;28.97
76713;BMP280;65640;43.154;25.658;2023-06-14T11:45:30;100404.91;;;28.64
76713;BMP280;65640;43.154;25.658;2023-06-14T11:47:57;100407.75;;;28.09
76713;BMP280;65640;43.154;25.658;2023-06-14T11:50:23;100396.16;;;28.16
76713;BMP280;65640;43.154;25.658;2023-06-14T11:52:56;100397.41;;;28.45
76713;BMP280;65640;43.154;25.658;2023-06-14T11:55:22;100395.22;;;28.70
76713;BMP280;65640;43.154;25.658;2023-06-14T11:57:48;100388.31;;;29.03
76713;BMP280;65640;43.154;25.658;2023-06-14T12:00:14;100385.94;;;29.89
76713;BMP280;65640;43.154;25.658;2023-06-14T12:02:41;100378.97;;;30.54
76713;BMP280;65640;43.154;25.658;2023-06-14T12:05:08;100380.56;;;30.51
76713;BMP280;65640;43.154;25.658;2023-06-14T12:07:36;100376.22;;;30.93
76713;BMP280;65640;43.154;25.658;2023-06-14T12:12:28;100375.91;;;30.32
76713;BMP280;65640;43.154;25.658;2023-06-14T12:14:55;100372.84;;;30.50
76713;BMP280;65640;43.154;25.658;2023-06-14T12:17:22;100368.91;;;30.54
76713;BMP280;65640;43.154;25.658;2023-06-14T12:19:49;100371.84;;;30.21
76713;BMP280;65640;43.154;25.658;2023-06-14T12:22:16;100381.72;;;29.84
76713;BMP280;65640;43.154;25.658;2023-06-14T12:24:45;100373.00;;;29.50
76713;BMP280;65640;43.154;25.658;2023-06-14T12:27:11;100375.56;;;29.34
76713;BMP280;65640;43.154;25.658;2023-06-14T12:29:41;100367.50;;;29.57
76713;BMP280;65640;43.154;25.658;2023-06-14T12:32:09;100371.44;;;29.99
76713;BMP280;65640;43.154;25.658;2023-06-14T12:34:34;100361.81;;;30.21
76713;BMP280;65640;43.154;25.658;2023-06-14T12:37:01;100352.75;;;30.51
76713;BMP280;65640;43.154;25.658;2023-06-14T12:39:26;100353.56;;;30.48
76713;BMP280;65640;43.154;25.658;2023-06-14T12:41:51;100359.47;;;30.00
76713;BMP280;65640;43.154;25.658;2023-06-14T12:44:17;100356.69;;;30.07
76713;BMP280;65640;43.154;25.658;2023-06-14T12:46:42;100353.78;;;29.94
76713;BMP280;65640;43.154;25.658;2023-06-14T12:49:10;100348.13;;;29.89
76713;BMP280;65640;43.154;25.658;2023-06-14T12:51:36;100341.28;;;30.04
76713;BMP280;65640;43.154;25.658;2023-06-14T12:54:02;100342.66;;;29.92
76713;BMP280;65640;43.154;25.658;2023-06-14T12:56:27;100337.31;;;30.51
76713;BMP280;65640;43.154;25.658;2023-06-14T12:58:53;100329.56;;;31.05
76713;BMP280;65640;43.154;25.658;2023-06-14T13:01:19;100330.91;;;31.13
76713;BMP280;65640;43.154;25.658;2023-06-14T13:03:46;100333.00;;;30.90
76713;BMP280;65640;43.154;25.658;2023-06-14T13:06:11;100331.16;;;30.67
76713;BMP280;65640;43.154;25.658;2023-06-14T13:08:37;100320.91;;;30.78
76713;BMP280;65640;43.154;25.658;2023-06-14T13:11:02;100317.44;;;30.78
76713;BMP280;65640;43.154;25.658;2023-06-14T13:13:28;100313.84;;;31.00
76713;BMP280;65640;43.154;25.658;2023-06-14T13:15:53;100318.78;;;31.38
76713;BMP280;65640;43.154;25.658;2023-06-14T13:18:18;100311.16;;;31.49
76713;BMP280;65640;43.154;25.658;2023-06-14T13:20:46;100308.47;;;31.77
76713;BMP280;65640;43.154;25.658;2023-06-14T13:23:11;100307.56;;;31.68
76713;BMP280;65640;43.154;25.658;2023-06-14T13:25:37;100305.47;;;31.27
76713;BMP280;65640;43.154;25.658;2023-06-14T13:28:04;100306.94;;;30.99
76713;BMP280;65640;43.154;25.658;2023-06-14T13:30:30;100308.38;;;30.68
76713;BMP280;65640;43.154;25.658;2023-06-14T13:32:56;100302.09;;;30.55
76713;BMP280;65640;43.154;25.658;2023-06-14T13:35:22;100310.47;;;30.21
76713;BMP280;65640;43.154;25.658;2023-06-14T13:37:48;100305.28;;;30.11
76713;BMP280;65640;43.154;25.658;2023-06-14T13:40:13;100300.16;;;30.16
76713;BMP280;65640;43.154;25.658;2023-06-14T13:42:39;100304.72;;;30.19
76713;BMP280;65640;43.154;25.658;2023-06-14T13:45:05;100298.75;;;30.08
76713;BMP280;65640;43.154;25.658;2023-06-14T13:47:31;100302.38;;;29.78
76713;BMP280;65640;43.154;25.658;2023-06-14T13:49:57;100303.78;;;29.40
76713;BMP280;65640;43.154;25.658;2023-06-14T13:52:23;100302.97;;;28.90
76713;BMP280;65640;43.154;25.658;2023-06-14T13:54:48;100303.47;;;29.08
76713;BMP280;65640;43.154;25.658;2023-06-14T13:57:15;100302.47;;;29.25